sensor_id;sensor_type;location;lat;lon;timestamp;pressure;altitude;pressure_sealevel;temperature;humidity
65329;BME280;51941;52.210;5.158;2023-08-06T00:00:23;100418.69;;;15.06;100.00
65329;BME280;51941;52.210;5.158;2023-08-06T00:02:51;100418.97;;;15.04;100.00
65329;BME280;51941;52.210;5.158;2023-08-06T00:05:18;100417.91;;;15.05;100.00
65329;BME280;51941;52.210;5.158;2023-08-06T00:07:46;100430.69;;;15.03;100.00
65329;BME280;51941;52.210;5.158;2023-08-06T00:10:13;100420.84;;;14.99;100.00
65329;BME280;51941;52.210;5.158;2023-08-06T00:12:40;100421.38;;;15.01;100.00
65329;BME280;51941;52.210;5.158;2023-08-06T00:15:08;100422.16;;;15.01;100.00
65329;BME280;51941;52.210;5.158;2023-08-06T00:17:35;100426.19;;;14.99;100.00
65329;BME280;51941;52.210;5.158;2023-08-06T00:20:04;100421.38;;;14.96;100.00
65329;BME280;51941;52.210;5.158;2023-08-06T00:22:31;100421.91;;;14.98;100.00
65329;BME280;51941;52.210;5.158;2023-08-06T00:24:58;100419.78;;;15.00;100.00
65329;BME280;51941;52.210;5.158;2023-08-06T00:27:25;100412.06;;;14.98;100.00
65329;BME280;51941;52.210;5.158;2023-08-06T00:29:52;100422.97;;;15.02;100.00
65329;BME280;51941;52.210;5.158;2023-08-06T00:32:19;100415.53;;;14.99;100.00
65329;BME280;51941;52.210;5.158;2023-08-06T00:34:46;100417.13;;;15.00;100.00
65329;BME280;51941;52.210;5.158;2023-08-06T00:37:16;100420.59;;;15.00;100.00
65329;BME280;51941;52.210;5.158;2023-08-06T00:39:43;100416.59;;;14.98;100.00
65329;BME280;51941;52.210;5.158;2023-08-06T00:42:10;100421.63;;;15.04;100.00
65329;BME280;51941;52.210;5.158;2023-08-06T00:44:37;100416.31;;;15.04;100.00
65329;BME280;51941;52.210;5.158;2023-08-06T00:47:05;100416.03;;;15.01;100.00
65329;BME280;51941;52.210;5.158;2023-08-06T00:49:32;100433.09;;;15.05;100.00
65329;BME280;51941;52.210;5.158;2023-08-06T00:51:59;100413.09;;;15.02;100.00
65329;BME280;51941;52.210;5.158;2023-08-06T00:54:28;100422.16;;;15.01;100.00
65329;BME280;51941;52.210;5.158;2023-08-06T00:56:55;100417.63;;;15.02;100.00
65329;BME280;51941;52.210;5.158;2023-08-06T00:59:24;100422.44;;;15.05;100.00
65329;BME280;51941;52.210;5.158;2023-08-06T01:01:51;100419.50;;;15.06;100.00
65329;BME280;51941;52.210;5.158;2023-08-06T01:04:18;100424.31;;;15.04;100.00
65329;BME280;51941;52.210;5.158;2023-08-06T01:06:48;100423.22;;;15.05;100.00
65329;BME280;51941;52.210;5.158;2023-08-06T01:09:30;100413.63;;;15.04;100.00
65329;BME280;51941;52.210;5.158;2023-08-06T01:12:06;100419.50;;;15.06;100.00
65329;BME280;51941;52.210;5.158;2023-08-06T01:14:47;100411.50;;;15.01;100.00
65329;BME280;51941;52.210;5.158;2023-08-06T01:17:14;100415.25;;;15.05;100.00
65329;BME280;51941;52.210;5.158;2023-08-06T01:19:42;100411.25;;;15.03;100.00
65329;BME280;51941;52.210;5.158;2023-08-06T01:22:10;100409.09;;;15.05;100.00
65329;BME280;51941;52.210;5.158;2023-08-06T01:24:36;100418.16;;;15.04;100.00
65329;BME280;51941;52.210;5.158;2023-08-06T01:27:06;100414.47;;;15.00;100.00
65329;BME280;51941;52.210;5.158;2023-08-06T01:29:40;100413.38;;;14.96;100.00
65329;BME280;51941;52.210;5.158;2023-08-06T01:32:10;100415.78;;;14.97;100.00
65329;BME280;51941;52.210;5.158;2023-08-06T01:34:38;100414.19;;;14.96;100.00
65329;BME280;51941;52.210;5.158;2023-08-06T01:37:06;100409.66;;;14.97;100.00
65329;BME280;51941;52.210;5.158;2023-08-06T01:39:35;100411.81;;;14.90;100.00
65329;BME280;51941;52.210;5.158;2023-08-06T01:42:03;100411.53;;;14.91;100.00
65329;BME280;51941;52.210;5.158;2023-08-06T01:44:30;100417.16;;;14.90;100.00
65329;BME280;51941;52.210;5.158;2023-08-06T01:46:58;100421.66;;;14.89;100.00
65329;BME280;51941;52.210;5.158;2023-08-06T01:49:25;100429.94;;;14.88;100.00
65329;BME280;51941;52.210;5.158;2023-08-06T01:51:53;100419.78;;;14.85;100.00
65329;BME280;51941;52.210;5.158;2023-08-06T01:54:19;100420.34;;;14.82;100.00
65329;BME280;51941;52.210;5.158;2023-08-06T01:56:48;100414.75;;;14.78;100.00
65329;BME280;51941;52.210;5.158;2023-08-06T01:59:14;100419.28;;;14.77;100.00
65329;BME280;51941;52.210;5.158;2023-08-06T02:01:41;100422.47;;;14.79;100.00
65329;BME280;51941;52.210;5.158;2023-08-06T02:04:08;100425.16;;;14.79;100.00
65329;BME280;51941;52.210;5.158;2023-08-06T02:06:34;100417.94;;;14.80;100.00
65329;BME280;51941;52.210;5.158;2023-08-06T02:09:01;100423.00;;;14.82;100.00
65329;BME280;51941;52.210;5.158;2023-08-06T02:11:28;100423.53;;;14.84;100.00
65329;BME280;51941;52.210;5.158;2023-08-06T02:13:56;100425.94;;;14.85;100.00
65329;BME280;51941;52.210;5.158;2023-08-06T02:16:23;100435.53;;;14.86;100.00
65329;BME280;51941;52.210;5.158;2023-08-06T02:18:50;100428.84;;;14.84;100.00
65329;BME280;51941;52.210;5.158;2023-08-06T02:21:16;100425.94;;;14.80;100.00
65329;BME280;51941;52.210;5.158;2023-08-06T02:23:43;100435.53;;;14.86;100.00
65329;BME280;51941;52.210;5.158;2023-08-06T02:26:10;100431.53;;;14.89;100.00
65329;BME280;51941;52.210;5.158;2023-08-06T02:28:36;100432.84;;;14.86;100.00
65329;BME280;51941;52.210;5.158;2023-08-06T02:31:04;100431.25;;;14.85;100.00
65329;BME280;51941;52.210;5.158;2023-08-06T02:33:32;100422.47;;;14.85;100.00
65329;BME280;51941;52.210;5.158;2023-08-06T02:35:59;100424.59;;;14.88;100.00
65329;BME280;51941;52.210;5.158;2023-08-06T02:38:28;100425.13;;;14.90;100.00
65329;BME280;51941;52.210;5.158;2023-08-06T02:40:56;100422.47;;;14.90;100.00
65329;BME280;51941;52.210;5.158;2023-08-06T02:43:23;100416.34;;;14.89;100.00
65329;BME280;51941;52.210;5.158;2023-08-06T02:45:50;100421.13;;;14.92;100.00
65329;BME280;51941;52.210;5.158;2023-08-06T02:48:18;100415.53;;;14.94;100.00
65329;BME280;51941;52.210;5.158;2023-08-06T02:50:45;100423.00;;;14.97;100.00
65329;BME280;51941;52.210;5.158;2023-08-06T02:53:12;100423.00;;;14.97;100.00
65329;BME280;51941;52.210;5.158;2023-08-06T02:55:45;100427.50;;;15.01;100.00
65329;BME280;51941;52.210;5.158;2023-08-06T02:58:13;100424.56;;;15.03;100.00
65329;BME280;51941;52.210;5.158;2023-08-06T03:00:46;100408.03;;;15.01;100.00
65329;BME280;51941;52.210;5.158;2023-08-06T03:03:14;100421.38;;;15.01;100.00
65329;BME280;51941;52.210;5.158;2023-08-06T03:05:53;100404.88;;;14.99;100.00
65329;BME280;51941;52.210;5.158;2023-08-06T03:08:28;100412.31;;;15.02;100.00
65329;BME280;51941;52.210;5.158;2023-08-06T03:10:54;100410.97;;;15.04;100.00
65329;BME280;51941;52.210;5.158;2023-08-06T03:13:21;100407.78;;;15.02;100.00
65329;BME280;51941;52.210;5.158;2023-08-06T03:15:52;100415.25;;;15.00;100.00
65329;BME280;51941;52.210;5.158;2023-08-06T03:18:19;100409.13;;;15.00;100.00
65329;BME280;51941;52.210;5.158;2023-08-06T03:20:48;100407.53;;;14.94;100.00
65329;BME280;51941;52.210;5.158;2023-08-06T03:23:16;100413.38;;;14.96;100.00
65329;BME280;51941;52.210;5.158;2023-08-06T03:25:44;100407.53;;;14.94;100.00
65329;BME280;51941;52.210;5.158;2023-08-06T03:28:12;100411.53;;;14.91;100.00
65329;BME280;51941;52.210;5.158;2023-08-06T03:30:39;100414.72;;;14.93;100.00
65329;BME280;51941;52.210;5.158;2023-08-06T03:33:08;100416.59;;;14.93;100.00
65329;BME280;51941;52.210;5.158;2023-08-06T03:35:35;100422.72;;;14.93;100.00
65329;BME280;51941;52.210;5.158;2023-08-06T03:38:02;100418.75;;;14.91;100.00
65329;BME280;51941;52.210;5.158;2023-08-06T03:40:30;100413.69;;;14.89;100.00
65329;BME280;51941;52.210;5.158;2023-08-06T03:42:58;100418.75;;;14.91;100.00
65329;BME280;51941;52.210;5.158;2023-08-06T03:45:25;100416.63;;;14.83;100.00
65329;BME280;51941;52.210;5.158;2023-08-06T03:47:52;100422.47;;;14.79;100.00
65329;BME280;51941;52.210;5.158;2023-08-06T03:50:18;100413.16;;;14.77;100.00
65329;BME280;51941;52.210;5.158;2023-08-06T03:52:45;100411.81;;;14.74;100.00
65329;BME280;51941;52.210;5.158;2023-08-06T03:55:12;100411.81;;;14.74;100.00
65329;BME280;51941;52.210;5.158;2023-08-06T03:57:40;100421.69;;;14.74;100.00
65329;BME280;51941;52.210;5.158;2023-08-06T04:00:08;100416.88;;;14.76;100.00
65329;BME280;51941;52.210;5.158;2023-08-06T04:02:41;100417.13;;;14.74;100.00
65329;BME280;51941;52.210;5.158;2023-08-06T04:05:10;100417.41;;;14.78;100.00
65329;BME280;51941;52.210;5.158;2023-08-06T04:07:37;100411.03;;;14.74;100.00
65329;BME280;51941;52.210;5.158;2023-08-06T04:10:04;100421.94;;;14.77;100.00
65329;BME280;51941;52.210;5.158;2023-08-06T04:12:31;100417.69;;;14.76;100.00
65329;BME280;51941;52.210;5.158;2023-08-06T04:15:05;100419.53;;;14.76;100.00
65329;BME280;51941;52.210;5.158;2023-08-06T04:17:32;100423.56;;;14.73;100.00
65329;BME280;51941;52.210;5.158;2023-08-06T04:20:01;100429.69;;;14.74;100.00
65329;BME280;51941;52.210;5.158;2023-08-06T04:22:27;100419.81;;;14.74;100.00
65329;BME280;51941;52.210;5.158;2023-08-06T04:24:54;100425.94;;;14.75;100.00
65329;BME280;51941;52.210;5.158;2023-08-06T04:27:21;100430.72;;;14.78;100.00
65329;BME280;51941;52.210;5.158;2023-08-06T04:29:49;100434.75;;;14.80;100.00
65329;BME280;51941;52.210;5.158;2023-08-06T04:32:18;100436.34;;;14.82;100.00
65329;BME280;51941;52.210;5.158;2023-08-06T04:34:49;100436.84;;;14.84;100.00
65329;BME280;51941;52.210;5.158;2023-08-06T04:37:16;100434.72;;;14.86;100.00
65329;BME280;51941;52.210;5.158;2023-08-06T04:39:43;100442.19;;;14.84;100.00
65329;BME280;51941;52.210;5.158;2023-08-06T04:42:10;100448.03;;;14.86;100.00
65329;BME280;51941;52.210;5.158;2023-08-06T04:44:37;100447.78;;;14.87;100.00
65329;BME280;51941;52.210;5.158;2023-08-06T04:47:04;100450.19;;;14.89;100.00
65329;BME280;51941;52.210;5.158;2023-08-06T04:49:32;100450.19;;;14.89;100.00
65329;BME280;51941;52.210;5.158;2023-08-06T04:51:59;100457.13;;;14.90;100.00
65329;BME280;51941;52.210;5.158;2023-08-06T04:54:26;100451.78;;;14.90;100.00
65329;BME280;51941;52.210;5.158;2023-08-06T04:56:52;100452.31;;;14.92;100.00
65329;BME280;51941;52.210;5.158;2023-08-06T04:59:19;100451.22;;;14.93;100.00
65329;BME280;51941;52.210;5.158;2023-08-06T05:01:46;100454.44;;;14.90;100.00
65329;BME280;51941;52.210;5.158;2023-08-06T05:04:13;100450.72;;;14.91;100.00
65329;BME280;51941;52.210;5.158;2023-08-06T05:06:41;100456.56;;;14.93;100.00
65329;BME280;51941;52.210;5.158;2023-08-06T05:09:07;100460.31;;;14.92;100.00
65329;BME280;51941;52.210;5.158;2023-08-06T05:11:34;100458.41;;;14.92;100.00
65329;BME280;51941;52.210;5.158;2023-08-06T05:14:01;100462.44;;;14.95;100.00
65329;BME280;51941;52.210;5.158;2023-08-06T05:16:28;100460.03;;;14.93;100.00
65329;BME280;51941;52.210;5.158;2023-08-06T05:18:55;100462.69;;;14.93;100.00
65329;BME280;51941;52.210;5.158;2023-08-06T05:21:21;100470.97;;;14.97;100.00
65329;BME280;51941;52.210;5.158;2023-08-06T05:23:49;100476.28;;;14.97;100.00
65329;BME280;51941;52.210;5.158;2023-08-06T05:26:16;100482.13;;;15.04;100.00
65329;BME280;51941;52.210;5.158;2023-08-06T05:28:45;100491.22;;;15.08;100.00
65329;BME280;51941;52.210;5.158;2023-08-06T05:31:12;100486.16;;;15.06;100.00
65329;BME280;51941;52.210;5.158;2023-08-06T05:33:39;100497.59;;;15.12;100.00
65329;BME280;51941;52.210;5.158;2023-08-06T05:36:05;100501.84;;;15.13;100.00
65329;BME280;51941;52.210;5.158;2023-08-06T05:38:32;100499.72;;;15.15;100.00
65329;BME280;51941;52.210;5.158;2023-08-06T05:41:01;100504.53;;;15.08;100.00
65329;BME280;51941;52.210;5.158;2023-08-06T05:43:27;100504.00;;;15.11;100.00
65329;BME280;51941;52.210;5.158;2023-08-06T05:45:55;100501.59;;;15.14;100.00
65329;BME280;51941;52.210;5.158;2023-08-06T05:48:24;100504.00;;;15.16;100.00
65329;BME280;51941;52.210;5.158;2023-08-06T05:50:53;100501.84;;;15.23;100.00
65329;BME280;51941;52.210;5.158;2023-08-06T05:53:20;100509.31;;;15.26;100.00
65329;BME280;51941;52.210;5.158;2023-08-06T05:55:47;100509.31;;;15.26;100.00
65329;BME280;51941;52.210;5.158;2023-08-06T05:58:15;100510.38;;;15.25;100.00
65329;BME280;51941;52.210;5.158;2023-08-06T06:00:42;100525.84;;;15.23;100.00
65329;BME280;51941;52.210;5.158;2023-08-06T06:03:09;100517.88;;;15.18;100.00
65329;BME280;51941;52.210;5.158;2023-08-06T06:05:37;100524.78;;;15.14;100.00
65329;BME280;51941;52.210;5.158;2023-08-06T06:08:05;100528.25;;;15.14;100.00
65329;BME280;51941;52.210;5.158;2023-08-06T06:10:31;100532.78;;;15.14;100.00
65329;BME280;51941;52.210;5.158;2023-08-06T06:12:58;100531.72;;;15.05;100.00
65329;BME280;51941;52.210;5.158;2023-08-06T06:15:26;100534.38;;;15.05;100.00
65329;BME280;51941;52.210;5.158;2023-08-06T06:17:53;100535.44;;;14.94;100.00
65329;BME280;51941;52.210;5.158;2023-08-06T06:20:20;100533.56;;;14.84;100.00
65329;BME280;51941;52.210;5.158;2023-08-06T06:22:46;100533.03;;;14.77;100.00
65329;BME280;51941;52.210;5.158;2023-08-06T06:25:13;100541.03;;;14.77;100.00
65329;BME280;51941;52.210;5.158;2023-08-06T06:27:40;100544.22;;;14.69;100.00
65329;BME280;51941;52.210;5.158;2023-08-06T06:30:08;100541.31;;;14.65;100.00
65329;BME280;51941;52.210;5.158;2023-08-06T06:32:36;100539.72;;;14.64;100.00
65329;BME280;51941;52.210;5.158;2023-08-06T06:35:03;100548.75;;;14.68;100.00
65329;BME280;51941;52.210;5.158;2023-08-06T06:37:30;100558.34;;;14.64;100.00
65329;BME280;51941;52.210;5.158;2023-08-06T06:39:56;100554.09;;;14.63;100.00
65329;BME280;51941;52.210;5.158;2023-08-06T06:42:23;100562.88;;;14.64;100.00
65329;BME280;51941;52.210;5.158;2023-08-06T06:44:57;100557.56;;;14.64;100.00
65329;BME280;51941;52.210;5.158;2023-08-06T06:47:23;100559.13;;;14.55;100.00
65329;BME280;51941;52.210;5.158;2023-08-06T06:49:52;100564.47;;;14.60;100.00
65329;BME280;51941;52.210;5.158;2023-08-06T06:52:18;100569.53;;;14.56;100.00
65329;BME280;51941;52.210;5.158;2023-08-06T06:54:45;100571.66;;;14.54;100.00
65329;BME280;51941;52.210;5.158;2023-08-06T06:57:12;100569.53;;;14.56;100.00
65329;BME280;51941;52.210;5.158;2023-08-06T06:59:38;100570.59;;;14.60;100.00
65329;BME280;51941;52.210;5.158;2023-08-06T07:02:05;100576.16;;;14.54;100.00
65329;BME280;51941;52.210;5.158;2023-08-06T07:04:32;100566.81;;;14.51;100.00
65329;BME280;51941;52.210;5.158;2023-08-06T07:07:00;100574.25;;;14.49;100.00
65329;BME280;51941;52.210;5.158;2023-08-06T07:09:27;100572.34;;;14.29;100.00
65329;BME280;51941;52.210;5.158;2023-08-06T07:11:54;100577.38;;;14.31;100.00
65329;BME280;51941;52.210;5.158;2023-08-06T07:14:21;100579.53;;;14.34;100.00
65329;BME280;51941;52.210;5.158;2023-08-06T07:16:47;100584.59;;;14.35;100.00
65329;BME280;51941;52.210;5.158;2023-08-06T07:19:14;100575.03;;;14.39;100.00
65329;BME280;51941;52.210;5.158;2023-08-06T07:21:41;100576.88;;;14.34;100.00
65329;BME280;51941;52.210;5.158;2023-08-06T07:24:09;100583.28;;;14.38;100.00
65329;BME280;51941;52.210;5.158;2023-08-06T07:26:37;100583.81;;;14.35;100.00
65329;BME280;51941;52.210;5.158;2023-08-06T07:29:03;100576.88;;;14.29;100.00
65329;BME280;51941;52.210;5.158;2023-08-06T07:31:30;100593.91;;;14.28;100.00
65329;BME280;51941;52.210;5.158;2023-08-06T07:33:57;100594.66;;;14.23;100.00
65329;BME280;51941;52.210;5.158;2023-08-06T07:36:23;100596.72;;;14.06;100.00
65329;BME280;51941;52.210;5.158;2023-08-06T07:38:50;100596.97;;;14.04;100.00
65329;BME280;51941;52.210;5.158;2023-08-06T07:41:22;100601.78;;;14.02;100.00
65329;BME280;51941;52.210;5.158;2023-08-06T07:43:49;100609.47;;;13.99;100.00
65329;BME280;51941;52.210;5.158;2023-08-06T07:46:16;100604.88;;;13.84;100.00
65329;BME280;51941;52.210;5.158;2023-08-06T07:48:42;100608.59;;;13.83;100.00
65329;BME280;51941;52.210;5.158;2023-08-06T07:51:09;100614.09;;;13.72;100.00
65329;BME280;51941;52.210;5.158;2023-08-06T07:53:36;100612.69;;;13.59;100.00
65329;BME280;51941;52.210;5.158;2023-08-06T07:56:03;100608.19;;;13.59;100.00
65329;BME280;51941;52.210;5.158;2023-08-06T07:58:31;100615.84;;;13.51;100.00
65329;BME280;51941;52.210;5.158;2023-08-06T08:00:58;100606.81;;;13.57;100.00
65329;BME280;51941;52.210;5.158;2023-08-06T08:03:25;100618.03;;;13.59;100.00
65329;BME280;51941;52.210;5.158;2023-08-06T08:05:54;100617.53;;;13.67;100.00
65329;BME280;51941;52.210;5.158;2023-08-06T08:08:22;100614.66;;;13.74;100.00
65329;BME280;51941;52.210;5.158;2023-08-06T08:10:49;100616.56;;;13.83;100.00
65329;BME280;51941;52.210;5.158;2023-08-06T08:13:16;100614.19;;;13.87;100.00
65329;BME280;51941;52.210;5.158;2023-08-06T08:15:44;100613.44;;;13.91;100.00
65329;BME280;51941;52.210;5.158;2023-08-06T08:18:11;100621.16;;;13.98;100.00
65329;BME280;51941;52.210;5.158;2023-08-06T08:20:37;100617.47;;;14.04;100.00
65329;BME280;51941;52.210;5.158;2023-08-06T08:23:04;100614.84;;;14.09;100.00
65329;BME280;51941;52.210;5.158;2023-08-06T08:25:31;100622.03;;;14.14;100.00
65329;BME280;51941;52.210;5.158;2023-08-06T08:27:59;100613.56;;;14.22;100.00
65329;BME280;51941;52.210;5.158;2023-08-06T08:30:26;100625.59;;;14.29;100.00
65329;BME280;51941;52.210;5.158;2023-08-06T08:32:54;100622.38;;;14.27;100.00
65329;BME280;51941;52.210;5.158;2023-08-06T08:35:21;100621.09;;;14.35;100.00
65329;BME280;51941;52.210;5.158;2023-08-06T08:37:47;100633.34;;;14.41;100.00
65329;BME280;51941;52.210;5.158;2023-08-06T08:40:14;100626.47;;;14.50;100.00
65329;BME280;51941;52.210;5.158;2023-08-06T08:42:41;100628.59;;;14.53;100.00
65329;BME280;51941;52.210;5.158;2023-08-06T08:45:12;100631.31;;;14.58;100.00
65329;BME280;51941;52.210;5.158;2023-08-06T08:47:40;100628.94;;;14.67;100.00
65329;BME280;51941;52.210;5.158;2023-08-06T08:50:09;100635.91;;;14.73;100.00
65329;BME280;51941;52.210;5.158;2023-08-06T08:52:38;100632.44;;;14.77;100.00
65329;BME280;51941;52.210;5.158;2023-08-06T08:55:07;100635.94;;;14.83;100.00
65329;BME280;51941;52.210;5.158;2023-08-06T08:57:33;100637.28;;;14.96;100.00
65329;BME280;51941;52.210;5.158;2023-08-06T09:00:00;100635.41;;;15.06;100.00
65329;BME280;51941;52.210;5.158;2023-08-06T09:02:28;100637.31;;;15.16;100.00
65329;BME280;51941;52.210;5.158;2023-08-06T09:04:57;100645.03;;;15.28;100.00
65329;BME280;51941;52.210;5.158;2023-08-06T09:07:30;100651.97;;;15.34;100.00
65329;BME280;51941;52.210;5.158;2023-08-06T09:10:01;100658.13;;;15.44;100.00
65329;BME280;51941;52.210;5.158;2023-08-06T09:12:29;100661.84;;;15.43;100.00
65329;BME280;51941;52.210;5.158;2023-08-06T09:14:55;100666.38;;;15.43;100.00
65329;BME280;51941;52.210;5.158;2023-08-06T09:17:22;100665.31;;;15.49;100.00
65329;BME280;51941;52.210;5.158;2023-08-06T09:19:49;100668.25;;;15.52;100.00
65329;BME280;51941;52.210;5.158;2023-08-06T09:22:16;100669.56;;;15.55;100.00
65329;BME280;51941;52.210;5.158;2023-08-06T09:24:44;100675.44;;;15.57;100.00
65329;BME280;51941;52.210;5.158;2023-08-06T09:27:11;100674.66;;;15.51;100.00
65329;BME280;51941;52.210;5.158;2023-08-06T09:29:42;100673.56;;;15.58;100.00
65329;BME280;51941;52.210;5.158;2023-08-06T09:32:10;100684.56;;;15.61;100.00
65329;BME280;51941;52.210;5.158;2023-08-06T09:34:39;100680.00;;;15.67;100.00
65329;BME280;51941;52.210;5.158;2023-08-06T09:37:07;100694.94;;;15.73;100.00
65329;BME280;51941;52.210;5.158;2023-08-06T09:39:34;100700.56;;;15.76;100.00
65329;BME280;51941;52.210;5.158;2023-08-06T09:42:03;100699.78;;;15.71;100.00
65329;BME280;51941;52.210;5.158;2023-08-06T09:44:32;100705.38;;;15.69;100.00
65329;BME280;51941;52.210;5.158;2023-08-06T09:47:01;100698.38;;;15.58;100.00
65329;BME280;51941;52.210;5.158;2023-08-06T09:49:34;100704.53;;;15.59;100.00
65329;BME280;51941;52.210;5.158;2023-08-06T09:52:09;100703.19;;;15.46;100.00
65329;BME280;51941;52.210;5.158;2023-08-06T09:54:37;100696.78;;;15.42;100.00
65329;BME280;51941;52.210;5.158;2023-08-06T09:57:06;100708.00;;;15.34;100.00
65329;BME280;51941;52.210;5.158;2023-08-06T09:59:32;100705.03;;;15.30;100.00
65329;BME280;51941;52.210;5.158;2023-08-06T10:02:00;100707.19;;;15.33;100.00
65329;BME280;51941;52.210;5.158;2023-08-06T10:04:29;100704.25;;;15.25;100.00
65329;BME280;51941;52.210;5.158;2023-08-06T10:06:56;100701.28;;;15.21;100.00
65329;BME280;51941;52.210;5.158;2023-08-06T10:09:24;100706.06;;;15.14;100.00
65329;BME280;51941;52.210;5.158;2023-08-06T10:11:51;100703.66;;;15.07;100.00
65329;BME280;51941;52.210;5.158;2023-08-06T10:14:22;100714.31;;;15.02;100.00
65329;BME280;51941;52.210;5.158;2023-08-06T10:16:51;100713.25;;;14.98;100.00
65329;BME280;51941;52.210;5.158;2023-08-06T10:19:18;100706.81;;;14.94;100.00
65329;BME280;51941;52.210;5.158;2023-08-06T10:22:10;100710.31;;;15.00;100.00
65329;BME280;51941;52.210;5.158;2023-08-06T10:24:48;100711.63;;;14.97;100.00
65329;BME280;51941;52.210;5.158;2023-08-06T10:27:20;100707.91;;;14.98;100.00
65329;BME280;51941;52.210;5.158;2023-08-06T10:29:48;100717.22;;;14.96;100.00
65329;BME280;51941;52.210;5.158;2023-08-06T10:32:15;100721.50;;;14.97;100.00
65329;BME280;51941;52.210;5.158;2023-08-06T10:34:53;100717.22;;;14.91;100.00
65329;BME280;51941;52.210;5.158;2023-08-06T10:37:20;100718.56;;;14.98;100.00
65329;BME280;51941;52.210;5.158;2023-08-06T10:39:49;100728.44;;;14.98;100.00
65329;BME280;51941;52.210;5.158;2023-08-06T10:42:20;100722.03;;;15.04;100.00
65329;BME280;51941;52.210;5.158;2023-08-06T10:45:12;100718.28;;;14.95;100.00
65329;BME280;51941;52.210;5.158;2023-08-06T10:47:39;100724.16;;;15.02;100.00
65329;BME280;51941;52.210;5.158;2023-08-06T10:50:07;100724.47;;;15.05;100.00
65329;BME280;51941;52.210;5.158;2023-08-06T10:52:34;100725.81;;;15.08;100.00
65329;BME280;51941;52.210;5.158;2023-08-06T10:55:01;100730.84;;;15.04;100.00
65329;BME280;51941;52.210;5.158;2023-08-06T10:57:27;100739.38;;;15.11;100.00
65329;BME280;51941;52.210;5.158;2023-08-06T10:59:54;100738.88;;;15.14;100.00
65329;BME280;51941;52.210;5.158;2023-08-06T11:02:22;100739.69;;;15.15;100.00
65329;BME280;51941;52.210;5.158;2023-08-06T11:04:49;100739.94;;;15.08;100.00
65329;BME280;51941;52.210;5.158;2023-08-06T11:07:16;100743.94;;;15.16;100.00
65329;BME280;51941;52.210;5.158;2023-08-06T11:09:42;100749.53;;;15.19;100.00
65329;BME280;51941;52.210;5.158;2023-08-06T11:12:10;100746.91;;;15.25;100.00
65329;BME280;51941;52.210;5.158;2023-08-06T11:14:37;100748.47;;;15.21;100.00
65329;BME280;51941;52.210;5.158;2023-08-06T11:17:05;100749.81;;;15.23;100.00
65329;BME280;51941;52.210;5.158;2023-08-06T11:19:33;100749.03;;;15.28;100.00
65329;BME280;51941;52.210;5.158;2023-08-06T11:22:00;100749.81;;;15.23;100.00
65329;BME280;51941;52.210;5.158;2023-08-06T11:24:27;100754.34;;;15.28;100.00
65329;BME280;51941;52.210;5.158;2023-08-06T11:26:54;100756.72;;;15.19;100.00
65329;BME280;51941;52.210;5.158;2023-08-06T11:29:20;100758.13;;;15.27;100.00
65329;BME280;51941;52.210;5.158;2023-08-06T11:31:48;100757.81;;;15.28;100.00
65329;BME280;51941;52.210;5.158;2023-08-06T11:34:15;100762.38;;;15.33;100.00
65329;BME280;51941;52.210;5.158;2023-08-06T11:36:44;100763.69;;;15.30;100.00
65329;BME280;51941;52.210;5.158;2023-08-06T11:39:11;100775.97;;;15.31;100.00
65329;BME280;51941;52.210;5.158;2023-08-06T11:41:38;100767.72;;;15.38;100.00
65329;BME280;51941;52.210;5.158;2023-08-06T11:44:05;100759.97;;;15.31;100.00
65329;BME280;51941;52.210;5.158;2023-08-06T11:46:50;100767.19;;;15.41;100.00
65329;BME280;51941;52.210;5.158;2023-08-06T11:49:17;100770.94;;;15.40;100.00
65329;BME280;51941;52.210;5.158;2023-08-06T11:51:48;100768.00;;;15.46;100.00
65329;BME280;51941;52.210;5.158;2023-08-06T11:54:14;100772.53;;;15.46;100.00
65329;BME280;51941;52.210;5.158;2023-08-06T11:56:42;100775.22;;;15.51;100.00
65329;BME280;51941;52.210;5.158;2023-08-06T11:59:08;100779.50;;;15.57;100.00
65329;BME280;51941;52.210;5.158;2023-08-06T12:01:35;100779.78;;;15.61;100.00
65329;BME280;51941;52.210;5.158;2023-08-06T12:04:04;100778.47;;;15.68;100.00
65329;BME280;51941;52.210;5.158;2023-08-06T12:06:41;100774.75;;;15.69;100.00
65329;BME280;51941;52.210;5.158;2023-08-06T12:09:09;100776.09;;;15.77;100.00
65329;BME280;51941;52.210;5.158;2023-08-06T12:11:36;100782.50;;;15.71;100.00
65329;BME280;51941;52.210;5.158;2023-08-06T12:14:03;100778.22;;;15.75;100.00
65329;BME280;51941;52.210;5.158;2023-08-06T12:16:30;100780.09;;;15.79;100.00
65329;BME280;51941;52.210;5.158;2023-08-06T12:18:56;100783.00;;;15.83;100.00
65329;BME280;51941;52.210;5.158;2023-08-06T12:21:23;100780.88;;;15.90;100.00
65329;BME280;51941;52.210;5.158;2023-08-06T12:23:50;100787.84;;;15.96;100.00
65329;BME280;51941;52.210;5.158;2023-08-06T12:26:18;100787.81;;;16.01;100.00
65329;BME280;51941;52.210;5.158;2023-08-06T12:28:44;100791.56;;;16.00;100.00
65329;BME280;51941;52.210;5.158;2023-08-06T12:31:11;100791.84;;;16.04;100.00
65329;BME280;51941;52.210;5.158;2023-08-06T12:33:38;100791.28;;;16.07;100.00
65329;BME280;51941;52.210;5.158;2023-08-06T12:36:05;100795.56;;;16.13;100.00
65329;BME280;51941;52.210;5.158;2023-08-06T12:38:32;100788.59;;;16.17;100.00
65329;BME280;51941;52.210;5.158;2023-08-06T12:40:59;100800.34;;;16.26;100.00
65329;BME280;51941;52.210;5.158;2023-08-06T12:43:27;100804.91;;;16.30;100.00